Aérodrome :
LOGIN :

S'inscrire | Disclaimer

   EN    FR    IT 

 










Légende :    VFR   VFR Marginal   IFR   IFR Intensif   IFR Très Intensif
Visi : 
Plafond : 
>= 8 km
>= 3000ft
5 à 8 km
1000 à 3000 ft
1500m à 5 km
500 à 1000 ft
800 à 1500m
200 à 500 ft
< 800m
< 200 ft
Symboles :   Orages  Brouillard  Fortes neiges  Fortes précipitations  Vent > 20 kt
SIGMETs :   Divers  Orages  Givrage  Turbulence  Onde Orograph.  Cendres Volcan.







- Altitude de l'aérodrome : 1260 ft
- Code IATA : LDE
- Voir les cartes d'approche


LFBT - Tarbes / Ossun

DERNIER METAR :
  • 210100Z AUTO VRB03KT 4600 BR OVC003 03/02 Q1006 BECMG 1200 BCFG

METARs EXPIRÉS :
  • 210030Z AUTO 05004KT 020V090 3800 BR OVC002 03/02 Q1006 BECMG 1200 BCFG
  • 210000Z AUTO 02005KT 2500 BR OVC002 03/02 Q1006 BECMG 3000 BR BKN006
  • 202330Z AUTO 01006KT 3000 BR OVC002 03/02 Q1005 BECMG BKN006
  • 202300Z AUTO 36006KT 2000 BR BKN002 BKN074 BKN100 03/02 Q1005 BECMG 8000 NSW
  • 202230Z AUTO 11004KT 060V130 8000 BKN048 BKN076 03/03 Q1005 TEMPO OVC003

TAF AMD TAF LFBT
Valide du 21 à 00h jusqu'au 22 à 00h UTC


210010Z 2100/2124 VRB03KT 3000 BR BKN002
BECMG 2100/2104 1200 BCFG BKN002
TEMPO 2103/2108 0600 FG VV///
BECMG 2109/2111 08005KT 7000 SCT005
BECMG 2111/2113 CAVOK
BECMG 2118/2120 VRB03KT
Pas de NOTAMs connus pour ce terrain.



MET'MAP, la Météo Aéronautique d'un coup d'oeil ! - Copyright ORBIFLY Décembre 2007 - Disclaimer

ORBIFLY MET'MAP TEAM :

Programmation & Développement : Alexandra Zaïnal
Conception & Développement : Baudouin d'Aumeries
Co-Programmation & Développement : Marc-Olivier Méhu
Soutien technique & logistique : Manuel Goepfert

Contact : metmap@orbifly.com




SOURCES & CREDITS :

   NOAA